createdAt,value
2022-11-16T00:00:50.947Z,4.15
2022-11-16T00:03:18.042Z,3.97
2022-11-16T00:05:45.137Z,3.95
2022-11-16T00:08:12.198Z,4.25
2022-11-16T00:10:39.283Z,4.40
2022-11-16T00:13:06.363Z,4.28
2022-11-16T00:15:33.441Z,3.70
2022-11-16T00:18:00.575Z,4.30
2022-11-16T00:20:27.686Z,4.07
2022-11-16T00:22:54.749Z,4.30
2022-11-16T00:25:22.404Z,4.30
2022-11-16T00:27:49.564Z,3.90
2022-11-16T00:30:16.639Z,3.67
2022-11-16T00:32:43.710Z,3.55
2022-11-16T00:35:10.828Z,4.35
2022-11-16T00:37:37.949Z,4.00
2022-11-16T00:40:05.102Z,4.18
2022-11-16T00:42:32.461Z,3.83
2022-11-16T00:44:59.548Z,4.10
2022-11-16T00:47:27.331Z,4.20
2022-11-16T00:49:54.443Z,3.78
2022-11-16T00:52:21.535Z,3.65
2022-11-16T00:54:48.650Z,3.95
2022-11-16T00:57:15.754Z,3.88
2022-11-16T00:59:42.832Z,4.00
2022-11-16T01:02:09.902Z,4.18
2022-11-16T01:04:36.975Z,3.63
2022-11-16T01:07:04.118Z,3.63
2022-11-16T01:09:31.230Z,3.70
2022-11-16T01:12:10.664Z,3.90
2022-11-16T01:14:37.825Z,3.90
2022-11-16T01:17:04.918Z,4.03
2022-11-16T01:19:31.996Z,3.85
2022-11-16T01:21:59.145Z,3.70
2022-11-16T01:24:26.281Z,3.70
2022-11-16T01:26:56.920Z,3.70
2022-11-16T01:29:24.026Z,3.80
2022-11-16T01:31:51.129Z,3.90
2022-11-16T01:34:18.369Z,3.60
2022-11-16T01:36:45.484Z,3.80
2022-11-16T01:39:12.607Z,4.70
2022-11-16T01:41:39.686Z,3.88
2022-11-16T01:44:06.768Z,3.78
2022-11-16T01:46:33.845Z,3.85
2022-11-16T01:49:00.968Z,3.92
2022-11-16T01:51:28.050Z,4.15
2022-11-16T01:53:55.156Z,4.05
2022-11-16T01:56:22.287Z,3.75
2022-11-16T01:58:49.354Z,3.58
2022-11-16T02:01:16.469Z,3.85
2022-11-16T02:03:43.627Z,3.72
2022-11-16T02:06:10.722Z,3.55
2022-11-16T02:08:56.622Z,4.03
2022-11-16T02:11:23.717Z,3.83
2022-11-16T02:13:51.572Z,3.50
2022-11-16T02:16:18.741Z,4.00
2022-11-16T02:18:45.815Z,3.58
2022-11-16T02:21:12.872Z,3.90
2022-11-16T02:23:40.053Z,3.53
2022-11-16T02:26:07.118Z,3.63
2022-11-16T02:28:34.422Z,3.85
2022-11-16T02:31:01.738Z,4.07
2022-11-16T02:33:28.813Z,3.60
2022-11-16T02:35:55.962Z,3.60
2022-11-16T02:38:23.027Z,3.78
2022-11-16T02:40:50.110Z,4.00
2022-11-16T02:43:17.245Z,3.63
2022-11-16T02:45:44.314Z,3.88
2022-11-16T02:48:11.370Z,3.92
2022-11-16T02:50:38.460Z,3.70
2022-11-16T02:53:05.534Z,3.63
2022-11-16T02:55:32.617Z,4.10
2022-11-16T02:57:59.702Z,4.38
2022-11-16T03:00:26.778Z,3.60
2022-11-16T03:02:53.863Z,3.80
2022-11-16T03:05:20.980Z,3.83
2022-11-16T03:07:48.086Z,3.97
2022-11-16T03:10:35.151Z,3.80
2022-11-16T03:13:02.235Z,3.90
2022-11-16T03:15:29.323Z,3.78
2022-11-16T03:17:56.414Z,3.90
2022-11-16T03:20:23.520Z,4.32
2022-11-16T03:22:50.610Z,3.60
2022-11-16T03:25:17.690Z,4.00
2022-11-16T03:27:45.005Z,3.47
2022-11-16T03:30:12.092Z,3.97
2022-11-16T03:32:39.263Z,3.55
2022-11-16T03:35:06.389Z,3.80
2022-11-16T03:37:33.505Z,4.00
2022-11-16T03:40:01.131Z,3.72
2022-11-16T03:42:28.207Z,4.05
2022-11-16T03:44:55.278Z,3.80
2022-11-16T03:47:22.379Z,3.67
2022-11-16T03:49:49.633Z,3.80
2022-11-16T03:52:16.691Z,3.88
2022-11-16T03:54:43.800Z,4.20
2022-11-16T03:57:18.187Z,3.67
2022-11-16T03:59:45.378Z,3.80
2022-11-16T04:02:12.480Z,3.83
2022-11-16T04:04:58.211Z,3.65
2022-11-16T04:07:44.133Z,3.78
2022-11-16T04:10:30.014Z,3.92
2022-11-16T04:13:16.027Z,3.85
2022-11-16T04:18:47.477Z,3.85
2022-11-16T04:21:33.067Z,3.78
2022-11-16T04:24:12.200Z,3.70
2022-11-16T04:26:58.055Z,4.03
2022-11-16T04:29:25.113Z,4.00
2022-11-16T04:32:10.755Z,3.50
2022-11-16T04:34:56.698Z,3.97
2022-11-16T04:37:42.595Z,3.88
2022-11-16T04:40:09.739Z,3.45
2022-11-16T04:42:36.826Z,4.00
2022-11-16T04:45:22.305Z,4.00
2022-11-16T04:47:49.592Z,3.95
2022-11-16T04:50:16.653Z,4.05
2022-11-16T04:52:43.754Z,3.58
2022-11-16T04:55:10.846Z,3.95
2022-11-16T04:57:37.916Z,3.53
2022-11-16T05:00:04.978Z,3.70
2022-11-16T05:02:32.088Z,3.80
2022-11-16T05:04:59.206Z,3.85
2022-11-16T05:07:26.387Z,3.63
2022-11-16T05:09:53.468Z,3.92
2022-11-16T05:12:20.601Z,3.60
2022-11-16T05:14:47.672Z,3.55
2022-11-16T05:17:14.761Z,3.65
2022-11-16T05:20:00.673Z,3.70
2022-11-16T05:22:27.751Z,3.85
2022-11-16T05:24:54.858Z,4.03
2022-11-16T05:27:21.929Z,4.03
2022-11-16T05:29:51.848Z,3.80
2022-11-16T05:32:18.916Z,3.67
2022-11-16T05:34:46.061Z,3.75
2022-11-16T05:37:13.212Z,3.95
2022-11-16T05:39:40.368Z,3.70
2022-11-16T05:42:07.662Z,3.90
2022-11-16T05:44:34.731Z,4.00
2022-11-16T05:47:03.146Z,3.90
2022-11-16T05:49:30.221Z,3.92
2022-11-16T05:51:57.329Z,3.97
2022-11-16T05:54:27.588Z,3.55
2022-11-16T05:56:54.694Z,3.63
2022-11-16T05:59:21.933Z,3.70
2022-11-16T06:01:49.083Z,3.60
2022-11-16T06:04:16.214Z,3.83
2022-11-16T06:06:43.439Z,3.90
2022-11-16T06:09:10.549Z,3.80
2022-11-16T06:11:38.242Z,3.65
2022-11-16T06:14:05.426Z,4.00
2022-11-16T06:16:32.509Z,3.60
2022-11-16T06:18:59.601Z,4.20
2022-11-16T06:21:26.720Z,3.78
2022-11-16T06:23:53.893Z,4.10
2022-11-16T06:26:20.996Z,3.92
2022-11-16T06:28:48.098Z,3.80
2022-11-16T06:31:15.182Z,3.42
2022-11-16T06:33:42.258Z,3.92
2022-11-16T06:36:09.343Z,3.92
2022-11-16T06:38:36.708Z,3.70
2022-11-16T06:41:04.149Z,3.53
2022-11-16T06:43:31.333Z,3.70
2022-11-16T06:45:58.643Z,3.80
2022-11-16T06:48:25.728Z,3.72
2022-11-16T06:50:52.810Z,3.88
2022-11-16T06:53:21.621Z,3.95
2022-11-16T06:55:51.779Z,3.63
2022-11-16T06:58:18.863Z,4.00
2022-11-16T07:00:45.926Z,3.65
2022-11-16T07:03:13.064Z,3.70
2022-11-16T07:05:40.775Z,3.85
2022-11-16T07:08:08.221Z,4.15
2022-11-16T07:10:35.455Z,3.92
2022-11-16T07:13:03.166Z,4.00
2022-11-16T07:15:30.291Z,3.83
2022-11-16T07:17:57.365Z,3.65
2022-11-16T07:20:24.519Z,3.50
2022-11-16T07:22:51.609Z,3.78
2022-11-16T07:25:18.739Z,3.67
2022-11-16T07:27:45.826Z,3.75
2022-11-16T07:30:12.894Z,3.45
2022-11-16T07:32:58.922Z,3.70
2022-11-16T07:38:30.813Z,3.45
2022-11-16T07:41:28.148Z,3.38
2022-11-16T07:44:14.144Z,3.60
2022-11-16T07:46:59.821Z,3.65
2022-11-16T07:49:26.890Z,3.83
2022-11-16T07:51:53.954Z,3.80
2022-11-16T07:54:21.006Z,3.63
2022-11-16T07:56:48.087Z,3.80
2022-11-16T07:59:15.211Z,3.35
2022-11-16T08:01:42.368Z,3.55
2022-11-16T08:04:09.470Z,3.67
2022-11-16T08:06:36.865Z,3.70
2022-11-16T08:09:04.063Z,3.60
2022-11-16T08:11:31.165Z,3.70
2022-11-16T08:13:58.363Z,3.92
2022-11-16T08:16:28.410Z,3.80
2022-11-16T08:18:55.521Z,3.70
2022-11-16T08:21:22.603Z,3.88
2022-11-16T08:23:53.842Z,3.78
2022-11-16T08:26:23.998Z,3.92
2022-11-16T08:28:51.294Z,3.80
2022-11-16T08:31:18.654Z,3.60
2022-11-16T08:33:45.743Z,3.50
2022-11-16T08:36:17.192Z,3.83
2022-11-16T08:38:44.640Z,3.72
2022-11-16T08:41:12.053Z,3.90
2022-11-16T08:43:41.830Z,3.47
2022-11-16T08:46:08.923Z,3.60
2022-11-16T08:48:36.505Z,3.80
2022-11-16T08:51:20.616Z,3.60
2022-11-16T08:53:49.136Z,3.40
2022-11-16T08:56:17.147Z,3.60
2022-11-16T08:58:46.410Z,3.88
2022-11-16T09:01:13.947Z,3.38
2022-11-16T09:03:41.159Z,3.67
2022-11-16T09:06:08.278Z,3.70
2022-11-16T09:08:35.630Z,3.60
2022-11-16T09:11:02.967Z,3.42
2022-11-16T09:13:30.053Z,3.80
2022-11-16T09:15:57.465Z,3.92
2022-11-16T09:18:24.621Z,3.90
2022-11-16T09:20:51.729Z,3.72
2022-11-16T09:23:24.860Z,3.75
2022-11-16T09:25:52.510Z,3.60
2022-11-16T09:28:19.748Z,3.60
2022-11-16T09:30:46.807Z,3.60
2022-11-16T09:33:13.911Z,3.83
2022-11-16T09:35:41.010Z,3.78
2022-11-16T09:38:09.960Z,3.45
2022-11-16T09:40:37.085Z,3.47
2022-11-16T09:43:04.223Z,3.45
2022-11-16T09:45:31.299Z,3.67
2022-11-16T09:47:59.476Z,3.72
2022-11-16T09:50:26.584Z,3.67
2022-11-16T09:52:53.682Z,3.78
2022-11-16T09:55:20.808Z,3.05
2022-11-16T09:57:47.924Z,3.33
2022-11-16T10:00:15.510Z,3.80
2022-11-16T10:02:42.642Z,3.85
2022-11-16T10:05:10.733Z,3.55
2022-11-16T10:07:37.989Z,3.42
2022-11-16T10:10:05.231Z,3.80
2022-11-16T10:12:32.565Z,3.50
2022-11-16T10:15:01.817Z,3.42
2022-11-16T10:17:29.078Z,3.17
2022-11-16T10:19:56.267Z,4.00
2022-11-16T10:22:23.366Z,3.42
2022-11-16T10:24:51.077Z,3.30
2022-11-16T10:27:22.043Z,3.35
2022-11-16T10:29:49.422Z,3.20
2022-11-16T10:32:16.522Z,3.33
2022-11-16T10:34:43.978Z,3.42
2022-11-16T10:37:11.045Z,3.70
2022-11-16T10:39:41.007Z,3.60
2022-11-16T10:42:08.174Z,3.30
2022-11-16T10:44:35.273Z,3.60
2022-11-16T10:47:02.365Z,3.40
2022-11-16T10:49:29.440Z,3.50
2022-11-16T10:51:56.556Z,3.20
2022-11-16T10:54:23.641Z,3.33
2022-11-16T10:56:50.709Z,3.47
2022-11-16T10:59:17.790Z,3.33
2022-11-16T11:01:44.927Z,3.17
2022-11-16T11:04:12.158Z,3.28
2022-11-16T11:06:39.337Z,3.33
2022-11-16T11:09:06.414Z,3.25
2022-11-16T11:11:52.460Z,3.40
2022-11-16T11:16:46.561Z,3.30
2022-11-16T11:19:13.635Z,3.25
2022-11-16T11:21:40.751Z,3.28
2022-11-16T11:24:42.281Z,2.95
2022-11-16T11:26:54.892Z,3.28
2022-11-16T11:29:22.028Z,3.53
2022-11-16T11:31:49.178Z,3.28
2022-11-16T11:34:16.291Z,3.00
2022-11-16T11:36:43.442Z,3.20
2022-11-16T11:39:10.529Z,3.20
2022-11-16T11:41:37.725Z,3.10
2022-11-16T11:44:04.930Z,3.30
2022-11-16T11:46:59.761Z,2.97
2022-11-16T11:49:19.119Z,3.15
2022-11-16T11:51:47.017Z,3.13
2022-11-16T11:54:14.094Z,3.00
2022-11-16T11:56:41.172Z,3.42
2022-11-16T11:59:08.226Z,2.85
2022-11-16T12:01:35.377Z,3.33
2022-11-16T12:04:02.443Z,3.17
2022-11-16T12:06:29.550Z,2.60
2022-11-16T12:08:56.640Z,2.92
2022-11-16T12:11:23.705Z,2.85
2022-11-16T12:13:51.239Z,2.95
2022-11-16T12:16:18.310Z,2.90
2022-11-16T12:18:45.377Z,2.90
2022-11-16T12:21:13.241Z,3.17
2022-11-16T12:23:40.737Z,2.88
2022-11-16T12:26:07.796Z,3.20
2022-11-16T12:28:35.052Z,2.90
2022-11-16T12:31:02.158Z,2.80
2022-11-16T12:33:29.350Z,3.30
2022-11-16T12:35:56.461Z,2.90
2022-11-16T12:38:26.514Z,2.97
2022-11-16T12:40:53.704Z,2.80
2022-11-16T12:43:20.809Z,3.30
2022-11-16T12:45:47.993Z,3.08
2022-11-16T12:48:15.665Z,3.00
2022-11-16T12:50:42.959Z,3.00
2022-11-16T12:53:10.547Z,2.80
2022-11-16T12:55:37.613Z,2.92
2022-11-16T12:58:04.704Z,2.85
2022-11-16T13:00:31.824Z,3.10
2022-11-16T13:02:58.947Z,3.30
2022-11-16T13:05:26.021Z,2.70
2022-11-16T13:07:54.848Z,3.17
2022-11-16T13:10:22.543Z,3.10
2022-11-16T13:12:52.683Z,3.00
2022-11-16T13:15:22.975Z,2.70
2022-11-16T13:17:50.056Z,2.83
2022-11-16T13:20:17.186Z,2.80
2022-11-16T13:22:44.941Z,3.05
2022-11-16T13:25:12.052Z,3.10
2022-11-16T13:27:39.443Z,2.85
2022-11-16T13:30:06.538Z,2.85
2022-11-16T13:32:36.648Z,2.88
2022-11-16T13:35:03.718Z,2.80
2022-11-16T13:37:30.792Z,2.95
2022-11-16T13:40:01.991Z,3.20
2022-11-16T13:42:30.163Z,3.13
2022-11-16T13:44:57.261Z,3.30
2022-11-16T13:47:24.844Z,3.92
2022-11-16T13:49:51.916Z,3.40
2022-11-16T13:52:24.155Z,3.33
2022-11-16T13:54:56.960Z,3.38
2022-11-16T13:57:24.574Z,3.33
2022-11-16T13:59:51.652Z,3.40
2022-11-16T14:02:18.721Z,3.30
2022-11-16T14:04:45.831Z,3.10
2022-11-16T14:07:12.982Z,3.45
2022-11-16T14:09:40.088Z,3.25
2022-11-16T14:12:07.158Z,3.25
2022-11-16T14:14:34.305Z,3.55
2022-11-16T14:17:01.397Z,3.05
2022-11-16T14:19:28.517Z,3.28
2022-11-16T14:21:55.604Z,3.08
2022-11-16T14:24:22.675Z,3.13
2022-11-16T14:26:49.760Z,3.47
2022-11-16T14:29:16.851Z,2.80
2022-11-16T14:31:44.004Z,3.20
2022-11-16T14:34:11.082Z,3.10
2022-11-16T14:36:38.271Z,3.10
2022-11-16T14:39:05.341Z,3.10
2022-11-16T14:41:32.444Z,2.80
2022-11-16T14:43:59.545Z,2.97
2022-11-16T14:46:26.631Z,3.25
2022-11-16T14:48:53.699Z,2.83
2022-11-16T14:51:20.755Z,3.22
2022-11-16T14:53:47.842Z,3.03
2022-11-16T14:56:15.080Z,3.35
2022-11-16T14:58:42.209Z,4.53
2022-11-16T15:01:09.361Z,5.05
2022-11-16T15:03:37.084Z,5.15
2022-11-16T15:06:04.515Z,4.68
2022-11-16T15:08:31.825Z,3.47
2022-11-16T15:10:58.906Z,3.67
2022-11-16T15:13:26.052Z,3.47
2022-11-16T15:15:54.536Z,3.20
2022-11-16T15:18:23.236Z,3.60
2022-11-16T15:20:50.495Z,3.30
2022-11-16T15:23:17.587Z,3.35
2022-11-16T15:25:45.037Z,3.38
2022-11-16T15:28:12.097Z,3.42
2022-11-16T15:30:40.369Z,3.35
2022-11-16T15:33:07.453Z,3.10
2022-11-16T15:35:34.515Z,3.58
2022-11-16T15:38:01.591Z,3.20
2022-11-16T15:40:28.814Z,3.20
2022-11-16T15:42:55.963Z,3.10
2022-11-16T15:45:23.077Z,3.10
2022-11-16T15:47:50.239Z,3.00
2022-11-16T15:50:18.222Z,2.97
2022-11-16T15:52:45.379Z,3.25
2022-11-16T15:55:12.468Z,2.85
2022-11-16T15:57:44.039Z,3.13
2022-11-16T16:00:13.583Z,3.45
2022-11-16T16:02:40.747Z,2.90
2022-11-16T16:05:07.813Z,3.10
2022-11-16T16:07:34.949Z,3.00
2022-11-16T16:10:02.106Z,3.05
2022-11-16T16:12:29.209Z,3.13
2022-11-16T16:14:56.283Z,3.33
2022-11-16T16:17:23.403Z,3.10
2022-11-16T16:19:50.954Z,3.05
2022-11-16T16:22:18.396Z,3.25
2022-11-16T16:24:45.644Z,3.50
2022-11-16T16:27:12.826Z,3.33
2022-11-16T16:29:39.973Z,3.40
2022-11-16T16:32:07.066Z,3.15
2022-11-16T16:34:37.781Z,3.17
2022-11-16T16:37:06.428Z,3.15
2022-11-16T16:39:36.067Z,3.50
2022-11-16T16:42:03.178Z,3.75
2022-11-16T16:44:30.280Z,3.20
2022-11-16T16:46:57.442Z,3.40
2022-11-16T16:49:24.561Z,3.45
2022-11-16T16:51:51.638Z,3.03
2022-11-16T16:54:18.704Z,3.38
2022-11-16T16:56:45.782Z,3.42
2022-11-16T16:59:12.884Z,3.53
2022-11-16T17:01:39.951Z,3.30
2022-11-16T17:04:07.135Z,3.75
2022-11-16T17:06:34.221Z,3.53
2022-11-16T17:09:01.299Z,3.47
2022-11-16T17:11:28.946Z,3.60
2022-11-16T17:13:56.011Z,3.58
2022-11-16T17:16:23.257Z,3.50
2022-11-16T17:18:50.333Z,3.67
2022-11-16T17:21:17.397Z,3.22
2022-11-16T17:23:44.486Z,3.60
2022-11-16T17:26:11.565Z,3.60
2022-11-16T17:28:38.743Z,3.40
2022-11-16T17:31:05.869Z,3.33
2022-11-16T17:33:33.331Z,3.50
2022-11-16T17:36:02.907Z,3.40
2022-11-16T17:38:29.987Z,3.30
2022-11-16T17:40:57.118Z,3.67
2022-11-16T17:43:24.242Z,3.38
2022-11-16T17:45:51.316Z,3.22
2022-11-16T17:48:18.478Z,3.40
2022-11-16T17:50:45.600Z,3.55
2022-11-16T17:53:12.700Z,3.80
2022-11-16T17:55:39.762Z,3.65
2022-11-16T17:58:06.936Z,3.63
2022-11-16T18:00:34.017Z,3.50
2022-11-16T18:03:01.489Z,3.55
2022-11-16T18:05:28.624Z,3.47
2022-11-16T18:07:55.742Z,3.60
2022-11-16T18:10:22.823Z,3.28
2022-11-16T18:12:49.907Z,3.10
2022-11-16T18:15:33.164Z,3.30
2022-11-16T18:18:02.483Z,3.70
2022-11-16T18:20:29.601Z,3.40
2022-11-16T18:22:56.688Z,3.28
2022-11-16T18:25:23.755Z,3.55
2022-11-16T18:27:50.867Z,3.33
2022-11-16T18:30:17.934Z,3.40
2022-11-16T18:32:45.029Z,3.38
2022-11-16T18:35:12.112Z,3.40
2022-11-16T18:37:39.250Z,3.60
2022-11-16T18:40:06.393Z,3.55
2022-11-16T18:42:33.569Z,3.28
2022-11-16T18:45:00.662Z,3.80
2022-11-16T18:47:27.799Z,3.80
2022-11-16T18:49:54.954Z,3.67
2022-11-16T18:52:22.095Z,3.30
2022-11-16T18:54:49.229Z,3.70
2022-11-16T18:57:16.343Z,3.78
2022-11-16T18:59:43.453Z,4.00
2022-11-16T19:02:10.564Z,3.50
2022-11-16T19:04:40.060Z,3.60
2022-11-16T19:07:07.835Z,3.90
2022-11-16T19:09:35.143Z,3.53
2022-11-16T19:12:02.274Z,4.00
2022-11-16T19:14:29.387Z,3.50
2022-11-16T19:16:57.405Z,4.28
2022-11-16T19:19:25.416Z,3.63
2022-11-16T19:21:52.600Z,3.90
2022-11-16T19:24:19.841Z,4.00
2022-11-16T19:26:47.106Z,3.90
2022-11-16T19:29:14.306Z,5.80
2022-11-16T19:31:41.505Z,3.50
2022-11-16T19:34:08.763Z,3.70
2022-11-16T19:36:36.121Z,3.50
2022-11-16T19:39:03.461Z,3.45
2022-11-16T19:41:30.699Z,3.70
2022-11-16T19:43:59.782Z,3.80
2022-11-16T19:46:27.069Z,3.40
2022-11-16T19:48:54.363Z,3.67
2022-11-16T19:51:21.612Z,4.22
2022-11-16T19:53:48.970Z,4.35
2022-11-16T19:56:16.449Z,4.03
2022-11-16T19:58:43.848Z,3.90
2022-11-16T20:01:11.270Z,3.95
2022-11-16T20:03:38.913Z,4.10
2022-11-16T20:06:06.567Z,3.67
2022-11-16T20:08:34.085Z,3.88
2022-11-16T20:11:01.453Z,3.65
2022-11-16T20:13:28.979Z,3.53
2022-11-16T20:15:56.373Z,4.10
2022-11-16T20:18:23.770Z,3.85
2022-11-16T20:20:51.177Z,4.03
2022-11-16T20:23:19.661Z,3.70
2022-11-16T20:25:47.053Z,3.47
2022-11-16T20:28:14.472Z,3.58
2022-11-16T20:30:41.844Z,3.72
2022-11-16T20:33:09.228Z,4.05
2022-11-16T20:35:36.637Z,3.63
2022-11-16T20:38:03.939Z,4.03
2022-11-16T20:40:31.443Z,3.70
2022-11-16T20:43:00.425Z,3.90
2022-11-16T20:45:27.735Z,3.80
2022-11-16T20:47:54.967Z,3.58
2022-11-16T20:50:22.221Z,3.55
2022-11-16T20:52:52.693Z,4.00
2022-11-16T20:55:20.342Z,3.83
2022-11-16T20:57:47.524Z,3.58
2022-11-16T21:00:14.694Z,4.05
2022-11-16T21:02:41.956Z,3.70
2022-11-16T21:05:09.222Z,3.85
2022-11-16T21:07:36.525Z,3.38
2022-11-16T21:10:18.735Z,4.25
2022-11-16T21:13:04.375Z,3.83
2022-11-16T21:15:31.488Z,3.90
2022-11-16T21:17:58.726Z,3.70
2022-11-16T21:20:27.783Z,3.90
2022-11-16T21:22:55.379Z,3.65
2022-11-16T21:25:22.450Z,4.25
2022-11-16T21:27:49.584Z,4.25
2022-11-16T21:30:18.947Z,3.78
2022-11-16T21:32:46.025Z,3.97
2022-11-16T21:35:13.281Z,3.70
2022-11-16T21:37:40.355Z,3.90
2022-11-16T21:40:07.441Z,3.63
2022-11-16T21:42:34.521Z,3.95
2022-11-16T21:45:01.668Z,3.65
2022-11-16T21:47:29.203Z,3.70
2022-11-16T21:50:24.905Z,3.67
2022-11-16T21:52:43.408Z,3.40
2022-11-16T21:55:10.478Z,3.65
2022-11-16T21:57:37.655Z,3.65
2022-11-16T22:00:04.708Z,3.72
2022-11-16T22:02:31.806Z,3.85
2022-11-16T22:05:17.754Z,4.00
2022-11-16T22:07:44.828Z,3.45
2022-11-16T22:10:11.905Z,4.03
2022-11-16T22:12:39.000Z,3.80
2022-11-16T22:15:06.074Z,3.72
2022-11-16T22:17:33.156Z,3.70
2022-11-16T22:20:00.310Z,3.75
2022-11-16T22:22:27.423Z,3.53
2022-11-16T22:24:54.729Z,3.63
2022-11-16T22:27:21.890Z,3.42
2022-11-16T22:29:49.005Z,3.70
2022-11-16T22:32:16.137Z,3.45
2022-11-16T22:34:43.403Z,3.80
2022-11-16T22:37:10.474Z,3.83
2022-11-16T22:39:37.854Z,3.50
2022-11-16T22:42:05.079Z,3.58
2022-11-16T22:44:32.134Z,3.70
2022-11-16T22:46:59.198Z,3.60
2022-11-16T22:49:26.320Z,3.40
2022-11-16T22:51:53.449Z,3.40
2022-11-16T22:54:23.403Z,3.67
2022-11-16T22:56:54.466Z,3.80
2022-11-16T22:59:21.611Z,3.15
2022-11-16T23:01:48.668Z,3.70
2022-11-16T23:04:15.892Z,3.63
2022-11-16T23:06:42.961Z,3.53
2022-11-16T23:09:10.043Z,3.47
2022-11-16T23:11:55.832Z,3.60
2022-11-16T23:14:41.511Z,3.60
2022-11-16T23:17:08.571Z,3.40
2022-11-16T23:19:54.550Z,3.22
2022-11-16T23:22:40.673Z,3.40
2022-11-16T23:27:54.300Z,3.47
2022-11-16T23:30:21.364Z,3.28
2022-11-16T23:32:48.429Z,2.92
2022-11-16T23:35:15.497Z,3.28
2022-11-16T23:37:42.566Z,3.17
2022-11-16T23:40:09.618Z,3.10
2022-11-16T23:43:09.096Z,3.30
2022-11-16T23:45:36.149Z,3.17
2022-11-16T23:48:03.253Z,3.33
2022-11-16T23:50:30.385Z,3.40
2022-11-16T23:52:57.462Z,3.30
2022-11-16T23:55:24.561Z,3.10
2022-11-16T23:57:51.683Z,3.20
